Página principal
METAR-TAF:

METAR-TAF

Aeroportos :

Aeroporto Frédéric Chopin de Varsóvia

Varsóvia, Polónia

latitude: 52-10N, longitude: 020-58E, altura: 106 m

Observação actual do tempo

O boletim foi feito há 15 minutos, às 23:00 UTC
Vento 8 kt de sudeste
Temperatura 9°C
Humidade 93%
Pressão 1013 hPa
Visibilidade: 6000 m
Encobertoa uma altura de 500 ft

METAR: EPWA 152300Z 14008KT 6000 OVC005 09/08 Q1013 BECMG 5000 BR

Hora: 00:15 (23:15 UTC)

Previsão

O boletim foi feito há 2 horas e 45 minutos, às 20:30 UTC
Previsão válida de 15 às 21 UTC a 16 às 21 UTC
Vento 8 kt de sudeste
Visibilidade: 6000 m
Encobertoa uma altura de 600 ft
Temporariamente
de 15 às 23 UTC a 16 às 07 UTC
Visibilidade: 2500 m
Nuvens fragmentadasa uma altura de 200 ft
neblina
Tornando-se
de 16 às 09 UTC a 16 às 12 UTC
Visibilidade 10 km ou mais
sem nuvens abaixo de 1500 metros e sem cumulonimbus

TAF: EPWA 152030Z 1521/1621 13008KT 6000 OVC006 TEMPO 1523/1607 2500 BR BKN002 BECMG 1609/1612 CAVOK

Observações e previsões do tempo de mais de 4000 aeroportos (mensagens METAR e TAF).

As estações disponíveis são os pontos amarelos e vermelhos sobre o mapa.

Mova o rato sobre o mapa para ver o nome da estação.

Depois clique no ponto para visualizar as observações e previsões meteorológicas.

Para alterar o mapa : clique nos botões verdes com uma cruz preta para aumentar o zoom; no botão verde com uma pitada de zoom; ou nas setas verdes para mapas adjacentes.


METAR-TAF: